Time;durP1;ratioP1;P1;durP2;ratioP2;P2;SDS_P1;SDS_P2;PMS_P1;PMS_P2;Temp;Humidity;BMP_temperature;BMP_pressure;BME280_temperature;BME280_humidity;BME280_pressure;Samples;Min_cycle;Max_cycle;Signal;HPM_P1;HPM_P2
2021/01/19 00:01:25;;;;;;;31.50;16.05;;;;;;;;;;5025606;28;20206;-89
2021/01/19 00:03:51;;;;;;;36.13;16.90;;;;;;;;;;5023083;28;20237;-90
2021/01/19 00:06:17;;;;;;;36.45;18.30;;;;;;;;;;5026376;28;20739;-91
2021/01/19 00:08:43;;;;;;;35.38;18.30;;;;;;;;;;5025025;28;20201;-90
2021/01/19 00:11:10;;;;;;;31.10;17.08;;;;;;;;;;5021594;28;20204;-90
2021/01/19 00:13:36;;;;;;;33.38;16.00;;;;;;;;;;5023978;28;20219;-90
2021/01/19 00:16:02;;;;;;;35.92;17.00;;;;;;;;;;5022896;28;20213;-90
2021/01/19 00:18:28;;;;;;;37.85;17.85;;;;;;;;;;5025341;28;20202;-89
2021/01/19 00:20:54;;;;;;;38.67;17.20;;;;;;;;;;5023705;28;20212;-91
2021/01/19 00:23:20;;;;;;;31.15;15.63;;;;;;;;;;5023685;28;20203;-90
2021/01/19 00:25:46;;;;;;;26.73;15.13;;;;;;;;;;5025958;28;20234;-90
2021/01/19 00:28:13;;;;;;;29.85;15.60;;;;;;;;;;5034379;28;20305;-91
2021/01/19 00:30:40;;;;;;;35.00;16.25;;;;;;;;;;5036217;28;20225;-90
2021/01/19 00:33:06;;;;;;;29.98;14.85;;;;;;;;;;5015840;28;20235;-90
2021/01/19 00:35:32;;;;;;;34.03;16.23;;;;;;;;;;5022726;28;20200;-90
2021/01/19 00:37:59;;;;;;;36.85;15.90;;;;;;;;;;5020214;28;20246;-90
2021/01/19 00:40:25;;;;;;;28.48;13.50;;;;;;;;;;5023952;28;20205;-90
2021/01/19 00:42:51;;;;;;;32.10;14.75;;;;;;;;;;5020488;28;20205;-90
2021/01/19 00:45:18;;;;;;;34.47;16.27;;;;;;;;;;5024986;28;20228;-90
2021/01/19 00:47:44;;;;;;;38.30;17.73;;;;;;;;;;5022618;28;20213;-91
2021/01/19 00:50:10;;;;;;;34.50;16.42;;;;;;;;;;5023218;28;20213;-91
2021/01/19 00:52:36;;;;;;;37.22;16.33;;;;;;;;;;5024543;28;20219;-91
2021/01/19 00:55:03;;;;;;;34.22;16.40;;;;;;;;;;5022283;28;20205;-91
2021/01/19 00:57:29;;;;;;;37.58;18.13;;;;;;;;;;5024759;28;20205;-91
2021/01/19 00:59:55;;;;;;;35.10;15.68;;;;;;;;;;5019111;28;20209;-91
2021/01/19 01:02:22;;;;;;;34.13;16.48;;;;;;;;;;5021134;28;20217;-91
2021/01/19 01:04:48;;;;;;;37.90;17.45;;;;;;;;;;5018458;28;20221;-91
2021/01/19 01:07:14;;;;;;;42.22;16.52;;;;;;;;;;5022053;28;20197;-90
2021/01/19 01:09:40;;;;;;;34.90;16.65;;;;;;;;;;5023982;28;20300;-91
2021/01/19 01:12:06;;;;;;;31.08;15.90;;;;;;;;;;5019277;28;20248;-90
2021/01/19 01:14:33;;;;;;;35.60;16.05;;;;;;;;;;5022411;28;20208;-91
2021/01/19 01:16:59;;;;;;;36.50;17.50;;;;;;;;;;5011779;28;20255;-91
2021/01/19 01:19:26;;;;;;;32.70;16.13;;;;;;;;;;5023222;28;20277;-90
2021/01/19 01:21:52;;;;;;;32.80;15.43;;;;;;;;;;5021420;28;20217;-90
2021/01/19 01:24:18;;;;;;;32.93;14.40;;;;;;;;;;5022054;28;20205;-91
2021/01/19 01:26:44;;;;;;;32.20;16.95;;;;;;;;;;5020063;28;20205;-90
2021/01/19 01:29:10;;;;;;;29.45;14.32;;;;;;;;;;5020708;28;20243;-91
2021/01/19 01:31:36;;;;;;;30.42;14.45;;;;;;;;;;5022110;28;20204;-91
2021/01/19 01:34:02;;;;;;;30.08;13.85;;;;;;;;;;5020594;28;20216;-90
2021/01/19 01:36:29;;;;;;;35.60;16.35;;;;;;;;;;5023397;28;20208;-89
2021/01/19 01:38:55;;;;;;;29.85;15.63;;;;;;;;;;5019546;28;20568;-91
2021/01/19 01:41:22;;;;;;;29.75;14.48;;;;;;;;;;5020399;28;20209;-90
2021/01/19 01:43:48;;;;;;;29.45;14.05;;;;;;;;;;5017518;28;20205;-90
2021/01/19 01:46:15;;;;;;;30.98;15.25;;;;;;;;;;5021005;28;20228;-90
2021/01/19 01:48:42;;;;;;;36.05;15.63;;;;;;;;;;5019888;28;20209;-90
2021/01/19 01:51:09;;;;;;;29.90;14.70;;;;;;;;;;5020231;28;20209;-91
2021/01/19 01:53:37;;;;;;;38.97;16.83;;;;;;;;;;5022856;28;20201;-91
2021/01/19 01:56:03;;;;;;;30.02;15.27;;;;;;;;;;5020317;28;20208;-90
2021/01/19 01:58:29;;;;;;;33.85;15.75;;;;;;;;;;5022889;28;20204;-91
2021/01/19 02:00:55;;;;;;;32.35;16.15;;;;;;;;;;5019715;28;20204;-92
2021/01/19 02:03:21;;;;;;;35.63;17.60;;;;;;;;;;5022161;28;20218;-91
2021/01/19 02:05:47;;;;;;;28.92;15.02;;;;;;;;;;5019890;28;20296;-91
2021/01/19 02:08:23;;;;;;;34.83;15.98;;;;;;;;;;5022848;28;20208;-91
2021/01/19 02:10:51;;;;;;;42.33;18.45;;;;;;;;;;5018132;28;20204;-91
2021/01/19 02:13:23;;;;;;;34.47;18.75;;;;;;;;;;5020115;28;20880;-91
2021/01/19 02:15:52;;;;;;;32.10;15.52;;;;;;;;;;5026120;28;20205;-92
2021/01/19 02:18:27;;;;;;;38.10;15.88;;;;;;;;;;5020345;28;20205;-91
2021/01/19 02:21:08;;;;;;;31.20;14.68;;;;;;;;;;5021750;28;20204;-92
2021/01/19 02:23:36;;;;;;;34.67;15.98;;;;;;;;;;5017102;28;20200;-91
2021/01/19 02:26:32;;;;;;;31.45;15.65;;;;;;;;;;5022422;28;20228;-91
2021/01/19 02:29:06;;;;;;;39.60;16.25;;;;;;;;;;5018562;28;20232;-90
2021/01/19 02:31:50;;;;;;;33.75;16.73;;;;;;;;;;5021175;28;20215;-91
2021/01/19 02:34:19;;;;;;;33.85;15.88;;;;;;;;;;5012927;28;20234;-92
2021/01/19 02:36:49;;;;;;;34.65;15.70;;;;;;;;;;5020729;28;20208;-92
2021/01/19 02:39:20;;;;;;;30.92;14.65;;;;;;;;;;5019055;28;20232;-91
2021/01/19 02:41:47;;;;;;;31.60;16.10;;;;;;;;;;5022514;28;20196;-90
2021/01/19 02:44:18;;;;;;;32.30;15.55;;;;;;;;;;5019271;28;20243;-91
2021/01/19 02:46:50;;;;;;;29.13;15.93;;;;;;;;;;5015218;28;20232;-92
2021/01/19 02:49:16;;;;;;;34.83;17.08;;;;;;;;;;5020775;28;20201;-90
2021/01/19 02:51:42;;;;;;;37.33;17.80;;;;;;;;;;5018632;28;20209;-91
2021/01/19 02:54:08;;;;;;;31.00;14.98;;;;;;;;;;5020964;28;20209;-92
2021/01/19 02:56:36;;;;;;;32.75;16.42;;;;;;;;;;5017254;28;20213;-91
2021/01/19 02:59:08;;;;;;;34.63;16.45;;;;;;;;;;5011166;28;20205;-91
2021/01/19 03:01:36;;;;;;;32.55;16.27;;;;;;;;;;5018951;28;20278;-92
2021/01/19 03:04:04;;;;;;;33.75;17.63;;;;;;;;;;5021786;28;20212;-92
2021/01/19 03:06:31;;;;;;;36.75;16.63;;;;;;;;;;5018397;28;20236;-92
2021/01/19 03:08:58;;;;;;;35.83;17.17;;;;;;;;;;5020630;28;20212;-91
2021/01/19 03:11:25;;;;;;;40.95;16.38;;;;;;;;;;5019261;28;20212;-91
2021/01/19 03:13:51;;;;;;;36.70;15.43;;;;;;;;;;5018858;28;20213;-91
2021/01/19 03:16:18;;;;;;;35.28;17.95;;;;;;;;;;5021262;28;20205;-92
2021/01/19 03:18:45;;;;;;;32.38;15.38;;;;;;;;;;5014605;28;20200;-91
2021/01/19 03:21:13;;;;;;;30.88;14.25;;;;;;;;;;5023369;28;20209;-91
2021/01/19 03:23:39;;;;;;;33.38;15.50;;;;;;;;;;5033905;28;20191;-93
2021/01/19 03:26:05;;;;;;;29.65;14.30;;;;;;;;;;5035461;28;20243;-91
2021/01/19 03:28:31;;;;;;;22.48;11.52;;;;;;;;;;5032427;28;20201;-92
2021/01/19 03:30:57;;;;;;;31.17;14.25;;;;;;;;;;5026560;28;20224;-91
2021/01/19 03:33:24;;;;;;;30.38;13.77;;;;;;;;;;5018706;28;20208;-91
2021/01/19 03:35:50;;;;;;;25.67;12.93;;;;;;;;;;5020178;28;20231;-92
2021/01/19 03:38:17;;;;;;;25.45;14.00;;;;;;;;;;5021000;28;20213;-91
2021/01/19 03:40:43;;;;;;;29.63;12.85;;;;;;;;;;5015913;28;20580;-92
2021/01/19 03:43:10;;;;;;;29.55;12.75;;;;;;;;;;5019011;28;20581;-92
2021/01/19 03:45:36;;;;;;;27.08;12.38;;;;;;;;;;5019815;28;20225;-90
2021/01/19 03:48:02;;;;;;;24.45;13.00;;;;;;;;;;5021612;28;20200;-91
2021/01/19 03:50:28;;;;;;;29.52;13.75;;;;;;;;;;5019060;28;20207;-91
2021/01/19 03:52:54;;;;;;;27.90;14.05;;;;;;;;;;5020062;28;20206;-91
2021/01/19 03:55:21;;;;;;;31.63;13.05;;;;;;;;;;5021108;28;20272;-92
2021/01/19 03:57:48;;;;;;;27.77;13.05;;;;;;;;;;5016928;28;20213;-91
2021/01/19 04:00:14;;;;;;;30.25;12.85;;;;;;;;;;5020540;28;20204;-92
2021/01/19 04:02:41;;;;;;;29.45;12.98;;;;;;;;;;5018083;28;20213;-91
2021/01/19 04:05:08;;;;;;;24.45;13.38;;;;;;;;;;5020527;28;20308;-92
2021/01/19 04:07:34;;;;;;;31.75;12.73;;;;;;;;;;5018218;28;20217;-92
2021/01/19 04:10:00;;;;;;;29.40;13.90;;;;;;;;;;5022121;28;20220;-91
2021/01/19 04:12:27;;;;;;;28.95;13.60;;;;;;;;;;5021347;28;20240;-91
2021/01/19 04:14:53;;;;;;;26.10;12.75;;;;;;;;;;5024586;28;20216;-91
2021/01/19 04:17:19;;;;;;;30.73;14.38;;;;;;;;;;5024139;28;20842;-92
2021/01/19 04:19:45;;;;;;;33.40;15.30;;;;;;;;;;5021882;28;20205;-91
2021/01/19 04:22:11;;;;;;;27.58;12.88;;;;;;;;;;5023968;28;20577;-92
2021/01/19 04:24:37;;;;;;;32.17;13.88;;;;;;;;;;5021601;28;20209;-91
2021/01/19 04:27:03;;;;;;;25.13;11.77;;;;;;;;;;5027026;28;20252;-92
2021/01/19 04:29:30;;;;;;;20.88;11.18;;;;;;;;;;5023075;28;20236;-91
2021/01/19 04:31:56;;;;;;;31.27;13.85;;;;;;;;;;5024027;28;20201;-91
2021/01/19 04:34:22;;;;;;;26.02;13.23;;;;;;;;;;5024178;28;20227;-91
2021/01/19 04:36:48;;;;;;;21.52;11.05;;;;;;;;;;5021010;28;20204;-91
2021/01/19 04:39:14;;;;;;;21.50;11.95;;;;;;;;;;5025348;28;20220;-91
2021/01/19 04:41:40;;;;;;;27.02;12.15;;;;;;;;;;5021842;28;20212;-91
2021/01/19 04:44:07;;;;;;;25.58;13.93;;;;;;;;;;5025493;28;20208;-92
2021/01/19 04:46:34;;;;;;;28.55;13.77;;;;;;;;;;5019569;28;20228;-91
2021/01/19 04:49:02;;;;;;;31.75;13.27;;;;;;;;;;5023530;28;20208;-91
2021/01/19 04:51:32;;;;;;;26.50;11.75;;;;;;;;;;5021378;28;20770;-91
2021/01/19 04:53:59;;;;;;;33.22;15.00;;;;;;;;;;5023927;28;20205;-90
2021/01/19 04:56:26;;;;;;;23.42;12.20;;;;;;;;;;5022508;28;20204;-90
2021/01/19 04:58:54;;;;;;;27.45;13.90;;;;;;;;;;5023013;28;20263;-91
2021/01/19 05:01:21;;;;;;;28.42;14.18;;;;;;;;;;5024180;28;20280;-91
2021/01/19 05:03:56;;;;;;;25.63;13.45;;;;;;;;;;5021672;28;20212;-91
2021/01/19 05:06:55;;;;;;;30.67;15.02;;;;;;;;;;5021455;28;20228;-92
2021/01/19 05:09:22;;;;;;;34.25;14.05;;;;;;;;;;5019596;28;20209;-91
2021/01/19 05:11:49;;;;;;;28.88;13.90;;;;;;;;;;5021408;28;20205;-91
2021/01/19 05:14:17;;;;;;;31.08;14.27;;;;;;;;;;5020122;28;20209;-91
2021/01/19 05:16:43;;;;;;;30.58;15.02;;;;;;;;;;5022404;28;20201;-92
2021/01/19 05:19:10;;;;;;;32.15;14.80;;;;;;;;;;5020744;28;20205;-91
2021/01/19 05:21:37;;;;;;;24.83;13.65;;;;;;;;;;5021620;28;20200;-92
2021/01/19 05:24:03;;;;;;;33.97;15.23;;;;;;;;;;5022991;28;20204;-91
2021/01/19 05:26:32;;;;;;;26.85;13.55;;;;;;;;;;5018735;28;20232;-91
2021/01/19 05:28:58;;;;;;;36.30;15.65;;;;;;;;;;5021616;28;20245;-91
2021/01/19 05:31:26;;;;;;;38.15;16.15;;;;;;;;;;5020585;28;20692;-91
2021/01/19 05:34:03;;;;;;;43.13;17.42;;;;;;;;;;5022635;28;20211;-92
2021/01/19 05:36:35;;;;;;;38.10;18.30;;;;;;;;;;5021117;28;20201;-92
2021/01/19 05:39:01;;;;;;;44.25;18.80;;;;;;;;;;5023988;28;20213;-92
2021/01/19 05:41:28;;;;;;;39.05;18.38;;;;;;;;;;5023775;28;20281;-91
2021/01/19 05:43:54;;;;;;;35.92;17.35;;;;;;;;;;5024723;28;20217;-93
2021/01/19 05:46:25;;;;;;;37.80;17.27;;;;;;;;;;5023824;28;20229;-91
2021/01/19 05:48:53;;;;;;;37.72;17.23;;;;;;;;;;5021163;28;20201;-91
2021/01/19 05:51:20;;;;;;;33.35;16.85;;;;;;;;;;5016177;28;20208;-92
2021/01/19 05:53:51;;;;;;;31.67;16.50;;;;;;;;;;5016056;28;20592;-90
2021/01/19 05:56:20;;;;;;;36.05;16.65;;;;;;;;;;5015156;28;20232;-91
2021/01/19 05:58:47;;;;;;;33.90;15.98;;;;;;;;;;5012098;28;21020;-90
2021/01/19 06:01:19;;;;;;;29.48;14.38;;;;;;;;;;5016409;28;20212;-91
2021/01/19 06:03:51;;;;;;;35.90;16.38;;;;;;;;;;5014964;28;20208;-91
2021/01/19 06:06:17;;;;;;;37.58;18.20;;;;;;;;;;5016323;28;20221;-90
2021/01/19 06:08:43;;;;;;;48.90;20.20;;;;;;;;;;5015047;28;20291;-90
2021/01/19 06:11:10;;;;;;;47.47;20.08;;;;;;;;;;5021235;28;20626;-91
2021/01/19 06:13:38;;;;;;;43.13;19.85;;;;;;;;;;5020706;28;20212;-89
2021/01/19 06:16:08;;;;;;;44.88;20.52;;;;;;;;;;5020441;28;20229;-90
2021/01/19 06:18:36;;;;;;;47.35;20.67;;;;;;;;;;5014855;28;20220;-90
2021/01/19 06:21:02;;;;;;;41.22;19.65;;;;;;;;;;5025518;28;20280;-91
2021/01/19 06:23:29;;;;;;;45.58;18.70;;;;;;;;;;5032463;28;20213;-89
2021/01/19 06:26:03;;;;;;;44.65;18.38;;;;;;;;;;5033531;28;20212;-90
2021/01/19 06:28:30;;;;;;;42.53;18.65;;;;;;;;;;5030848;28;20215;-89
2021/01/19 06:30:56;;;;;;;39.85;19.90;;;;;;;;;;5019720;28;20246;-90
2021/01/19 06:33:23;;;;;;;45.03;19.20;;;;;;;;;;5019645;28;20220;-90
2021/01/19 06:35:54;;;;;;;50.40;19.52;;;;;;;;;;5022967;28;20205;-90
2021/01/19 06:38:20;;;;;;;34.45;17.08;;;;;;;;;;5021324;28;20208;-90
2021/01/19 06:40:48;;;;;;;33.75;16.48;;;;;;;;;;5024056;28;20205;-90
2021/01/19 06:43:14;;;;;;;32.38;16.25;;;;;;;;;;5021458;28;20237;-89
2021/01/19 06:45:41;;;;;;;46.95;21.05;;;;;;;;;;5015794;28;20232;-91
2021/01/19 06:48:08;;;;;;;59.85;27.77;;;;;;;;;;5021142;28;20248;-91
2021/01/19 06:50:36;;;;;;;61.80;29.35;;;;;;;;;;5024175;28;20317;-91
2021/01/19 06:53:13;;;;;;;59.65;28.98;;;;;;;;;;5019108;28;20756;-88
2021/01/19 06:55:39;;;;;;;67.05;30.65;;;;;;;;;;5022769;28;20228;-89
2021/01/19 06:58:17;;;;;;;64.18;29.67;;;;;;;;;;5023120;28;20232;-90
2021/01/19 07:00:44;;;;;;;62.00;28.80;;;;;;;;;;5021576;28;20236;-90
2021/01/19 07:03:21;;;;;;;60.42;29.48;;;;;;;;;;5023448;28;20216;-91
2021/01/19 07:05:50;;;;;;;52.75;27.30;;;;;;;;;;5020414;28;20243;-90
2021/01/19 07:08:25;;;;;;;62.30;28.73;;;;;;;;;;5022637;28;20211;-90
2021/01/19 07:10:52;;;;;;;62.78;28.25;;;;;;;;;;5020537;28;20193;-91
2021/01/19 07:13:21;;;;;;;66.00;31.13;;;;;;;;;;5021704;28;20200;-91
2021/01/19 07:16:07;;;;;;;60.50;28.63;;;;;;;;;;5019205;28;20213;-90
2021/01/19 07:18:44;;;;;;;62.58;29.60;;;;;;;;;;5021844;28;20215;-89
2021/01/19 07:21:11;;;;;;;60.05;28.13;;;;;;;;;;5022471;28;20216;-89
2021/01/19 07:24:12;;;;;;;56.72;26.60;;;;;;;;;;5023572;28;20204;-90
2021/01/19 07:26:41;;;;;;;57.40;27.65;;;;;;;;;;5012010;28;20259;-89
2021/01/19 07:29:07;;;;;;;65.43;29.42;;;;;;;;;;5023272;28;20254;-89
2021/01/19 07:31:33;;;;;;;58.00;30.05;;;;;;;;;;5020944;28;20212;-91
2021/01/19 07:34:02;;;;;;;65.22;28.38;;;;;;;;;;5022444;28;20752;-91
2021/01/19 07:36:28;;;;;;;55.95;27.13;;;;;;;;;;5020592;28;20209;-90
2021/01/19 07:38:54;;;;;;;57.80;29.30;;;;;;;;;;5018558;28;20233;-90
2021/01/19 07:41:26;;;;;;;76.47;34.65;;;;;;;;;;5024566;28;20215;-89
2021/01/19 07:43:53;;;;;;;76.15;34.33;;;;;;;;;;5019629;28;20211;-90
2021/01/19 07:46:21;;;;;;;64.97;33.03;;;;;;;;;;5025332;28;20686;-90
2021/01/19 07:48:47;;;;;;;63.80;33.70;;;;;;;;;;5022538;28;20206;-89
2021/01/19 07:51:15;;;;;;;68.78;33.58;;;;;;;;;;5026579;28;20575;-89
2021/01/19 07:53:47;;;;;;;67.18;34.42;;;;;;;;;;5025470;28;20196;-89
2021/01/19 07:56:22;;;;;;;64.97;33.55;;;;;;;;;;5025099;28;20211;-90
2021/01/19 07:58:48;;;;;;;59.35;33.10;;;;;;;;;;5025695;28;20206;-89
2021/01/19 08:01:22;;;;;;;70.25;35.92;;;;;;;;;;5023679;28;20218;-89
2021/01/19 08:03:48;;;;;;;69.60;35.15;;;;;;;;;;5026425;28;20209;-89
2021/01/19 08:06:15;;;;;;;70.43;37.67;;;;;;;;;;5025085;28;20224;-90
2021/01/19 08:08:41;;;;;;;73.78;37.08;;;;;;;;;;5026020;28;20230;-90
2021/01/19 08:11:18;;;;;;;68.90;37.15;;;;;;;;;;5022191;28;20203;-89
2021/01/19 08:13:46;;;;;;;66.50;34.20;;;;;;;;;;5024984;28;20284;-90
2021/01/19 08:16:26;;;;;;;76.53;36.38;;;;;;;;;;5016331;28;20320;-92
2021/01/19 08:18:58;;;;;;;57.55;32.97;;;;;;;;;;5017068;28;20216;-93
2021/01/19 08:21:26;;;;;;;67.63;33.22;;;;;;;;;;5023191;28;20192;-91
2021/01/19 08:23:52;;;;;;;69.35;36.35;;;;;;;;;;5022711;28;20637;-92
2021/01/19 08:26:19;;;;;;;75.68;37.35;;;;;;;;;;5024448;28;20248;-93
2021/01/19 08:28:45;;;;;;;72.28;37.10;;;;;;;;;;5020371;28;20285;-92
2021/01/19 08:31:15;;;;;;;59.13;32.65;;;;;;;;;;5026290;28;21148;-91
2021/01/19 08:33:41;;;;;;;60.40;30.15;;;;;;;;;;5025426;28;20207;-92
2021/01/19 08:36:08;;;;;;;65.65;34.50;;;;;;;;;;5025875;28;20203;-92
2021/01/19 08:38:35;;;;;;;59.13;32.80;;;;;;;;;;5027747;28;20208;-92
2021/01/19 08:41:01;;;;;;;60.35;30.67;;;;;;;;;;5024656;28;20211;-93
2021/01/19 08:43:27;;;;;;;63.03;30.42;;;;;;;;;;5021740;28;20562;-92
2021/01/19 08:45:54;;;;;;;65.55;33.00;;;;;;;;;;5024682;28;20269;-92
2021/01/19 08:48:21;;;;;;;59.45;29.50;;;;;;;;;;5024665;28;20204;-92
2021/01/19 08:50:48;;;;;;;58.28;28.85;;;;;;;;;;5022180;28;20203;-93
2021/01/19 08:53:15;;;;;;;52.75;25.95;;;;;;;;;;5025970;28;20598;-93
2021/01/19 08:55:43;;;;;;;51.90;27.95;;;;;;;;;;5024454;28;20244;-93
2021/01/19 08:58:17;;;;;;;49.83;26.73;;;;;;;;;;5026885;28;20201;-91
2021/01/19 09:00:43;;;;;;;50.70;25.83;;;;;;;;;;5016543;28;20204;-92
2021/01/19 09:03:11;;;;;;;50.60;26.70;;;;;;;;;;5026001;28;20217;-93
2021/01/19 09:05:37;;;;;;;54.10;29.90;;;;;;;;;;5026522;28;20236;-93
2021/01/19 09:08:12;;;;;;;55.25;29.52;;;;;;;;;;5028196;28;20193;-93
2021/01/19 09:10:38;;;;;;;58.42;31.42;;;;;;;;;;5031629;28;20206;-93
2021/01/19 09:13:05;;;;;;;51.00;28.17;;;;;;;;;;5035122;28;20189;-92
2021/01/19 09:15:36;;;;;;;48.67;26.33;;;;;;;;;;5030714;28;20216;-92
2021/01/19 09:18:02;;;;;;;52.28;26.65;;;;;;;;;;5023235;28;20212;-93
2021/01/19 09:20:28;;;;;;;51.83;25.90;;;;;;;;;;5023400;28;20201;-92
2021/01/19 09:22:54;;;;;;;56.88;28.77;;;;;;;;;;5022600;28;20209;-93
2021/01/19 09:25:22;;;;;;;45.88;24.73;;;;;;;;;;5025192;28;20217;-92
2021/01/19 09:27:48;;;;;;;44.97;26.85;;;;;;;;;;5022497;28;20809;-93
2021/01/19 09:30:16;;;;;;;50.38;26.08;;;;;;;;;;5025900;28;20290;-93
2021/01/19 09:32:43;;;;;;;41.33;23.92;;;;;;;;;;5026371;28;20215;-93
2021/01/19 09:35:10;;;;;;;40.92;21.63;;;;;;;;;;5031706;28;20255;-92
2021/01/19 09:37:36;;;;;;;37.25;22.33;;;;;;;;;;5024921;28;20239;-93
2021/01/19 09:40:02;;;;;;;42.60;21.35;;;;;;;;;;5025980;28;20200;-93
2021/01/19 09:42:29;;;;;;;35.85;20.70;;;;;;;;;;5023236;28;20208;-92
2021/01/19 09:44:55;;;;;;;45.42;24.15;;;;;;;;;;5022984;28;20208;-93
2021/01/19 09:47:24;;;;;;;45.28;23.83;;;;;;;;;;5017898;28;20227;-94
2021/01/19 09:49:52;;;;;;;38.33;22.42;;;;;;;;;;5023734;28;20209;-94
2021/01/19 09:52:18;;;;;;;36.53;22.60;;;;;;;;;;5023399;28;21009;-95
2021/01/19 09:54:44;;;;;;;42.35;23.98;;;;;;;;;;5023404;28;20204;-94
2021/01/19 09:57:11;;;;;;;39.88;23.70;;;;;;;;;;5022188;28;20223;-94
2021/01/19 09:59:39;;;;;;;38.72;22.70;;;;;;;;;;5023599;28;20679;-93
2021/01/19 10:02:05;;;;;;;38.17;21.38;;;;;;;;;;5021409;28;20214;-93
2021/01/19 10:04:32;;;;;;;37.83;21.65;;;;;;;;;;5021181;28;20208;-92
2021/01/19 10:07:02;;;;;;;37.42;21.02;;;;;;;;;;5020729;28;20839;-94
2021/01/19 10:09:36;;;;;;;41.20;21.45;;;;;;;;;;5014951;28;20220;-94
2021/01/19 10:12:03;;;;;;;38.75;21.20;;;;;;;;;;5015566;28;20211;-95
2021/01/19 10:14:30;;;;;;;38.40;22.13;;;;;;;;;;5027375;28;20212;-95
2021/01/19 10:16:56;;;;;;;33.22;19.55;;;;;;;;;;5022762;28;20208;-94
2021/01/19 10:19:23;;;;;;;35.42;20.73;;;;;;;;;;5021836;28;20244;-94
2021/01/19 10:21:50;;;;;;;34.13;19.38;;;;;;;;;;5024201;28;20291;-93
2021/01/19 10:24:16;;;;;;;35.90;19.63;;;;;;;;;;5018737;28;20235;-94
2021/01/19 10:26:44;;;;;;;33.33;20.45;;;;;;;;;;5020209;28;20235;-95
2021/01/19 10:29:10;;;;;;;32.50;18.75;;;;;;;;;;5022726;28;20299;-93
2021/01/19 10:31:45;;;;;;;27.70;18.60;;;;;;;;;;5018388;28;20246;-94
2021/01/19 10:34:14;;;;;;;29.73;18.95;;;;;;;;;;5022106;28;20208;-95
2021/01/19 10:40:01;;;;;;;32.67;18.35;;;;;;;;;;5024018;28;21172;-95
2021/01/19 10:51:43;;;;;;;30.83;18.20;;;;;;;;;;4893002;29;20218;-96
2021/01/19 10:54:12;;;;;;;34.30;20.15;;;;;;;;;;4970262;28;20207;-95
2021/01/19 10:56:40;;;;;;;30.10;19.98;;;;;;;;;;5021620;28;20212;-96
2021/01/19 10:59:06;;;;;;;33.92;19.85;;;;;;;;;;5019727;28;20241;-95
2021/01/19 11:01:32;;;;;;;31.77;19.30;;;;;;;;;;5022386;28;20209;-96
2021/01/19 11:04:13;;;;;;;35.03;20.55;;;;;;;;;;5022223;28;20212;-96
2021/01/19 11:06:40;;;;;;;35.10;20.85;;;;;;;;;;5023790;28;20748;-96
2021/01/19 11:09:07;;;;;;;33.20;20.60;;;;;;;;;;5019956;28;20295;-96
2021/01/19 11:11:41;;;;;;;37.53;22.95;;;;;;;;;;5020759;28;20209;-96
2021/01/19 11:14:18;;;;;;;36.95;19.83;;;;;;;;;;5022512;28;20212;-96
2021/01/19 11:16:44;;;;;;;33.00;19.67;;;;;;;;;;5022317;28;20303;-96
2021/01/19 11:19:18;;;;;;;38.85;20.42;;;;;;;;;;5024083;28;20205;-95
2021/01/19 11:22:06;;;;;;;41.95;24.92;;;;;;;;;;5024518;28;20204;-96
2021/01/19 11:24:38;;;;;;;37.22;21.15;;;;;;;;;;5025125;28;20648;-96
2021/01/19 11:27:05;;;;;;;41.10;23.75;;;;;;;;;;5024342;28;20334;-96
2021/01/19 11:29:33;;;;;;;35.65;21.50;;;;;;;;;;5027282;28;20298;-96
2021/01/19 11:32:00;;;;;;;32.45;19.90;;;;;;;;;;5007898;28;20243;-96
2021/01/19 11:34:27;;;;;;;33.33;20.33;;;;;;;;;;5027237;28;20252;-96
2021/01/19 11:36:54;;;;;;;28.90;18.75;;;;;;;;;;5026844;28;20209;-95
2021/01/19 11:39:21;;;;;;;32.92;19.92;;;;;;;;;;5021668;28;20224;-94
2021/01/19 11:41:47;;;;;;;24.48;16.38;;;;;;;;;;5016703;28;20729;-95
2021/01/19 11:44:23;;;;;;;24.20;13.75;;;;;;;;;;5025059;28;20280;-95
2021/01/19 11:47:04;;;;;;;20.60;13.43;;;;;;;;;;5033467;28;20212;-96
2021/01/19 11:49:48;;;;;;;20.10;13.48;;;;;;;;;;5028610;28;20208;-96
2021/01/19 11:52:20;;;;;;;24.35;15.10;;;;;;;;;;5004520;28;20196;-95
2021/01/19 11:54:47;;;;;;;22.40;14.35;;;;;;;;;;5026130;28;20209;-96
2021/01/19 11:57:13;;;;;;;21.95;14.75;;;;;;;;;;5033895;28;20248;-96
2021/01/19 11:59:41;;;;;;;24.98;15.90;;;;;;;;;;5029510;28;20220;-96
2021/01/19 12:02:07;;;;;;;29.58;18.20;;;;;;;;;;5025997;28;20231;-96
2021/01/19 12:04:37;;;;;;;25.48;16.60;;;;;;;;;;5026620;28;20249;-96
2021/01/19 12:07:05;;;;;;;27.05;17.65;;;;;;;;;;5024335;28;20256;-96
2021/01/19 12:09:32;;;;;;;29.00;15.82;;;;;;;;;;5027127;28;20206;-96
2021/01/19 12:11:59;;;;;;;31.75;19.02;;;;;;;;;;5024494;28;20239;-96
2021/01/19 12:14:26;;;;;;;26.08;18.17;;;;;;;;;;5026132;28;20220;-96
2021/01/19 12:16:53;;;;;;;26.85;17.58;;;;;;;;;;5025205;28;20245;-96
2021/01/19 12:22:46;;;;;;;29.95;19.05;;;;;;;;;;5026510;28;20207;-96
2021/01/19 12:25:26;;;;;;;28.20;18.60;;;;;;;;;;5026276;28;20231;-96
2021/01/19 12:27:52;;;;;;;36.58;23.63;;;;;;;;;;5028951;28;20214;-95
2021/01/19 12:30:19;;;;;;;37.78;22.70;;;;;;;;;;5029653;28;20251;-95
2021/01/19 12:32:45;;;;;;;35.90;23.10;;;;;;;;;;5023063;28;20214;-96
2021/01/19 12:35:12;;;;;;;37.33;20.95;;;;;;;;;;5031779;28;20209;-96
2021/01/19 12:37:38;;;;;;;36.38;21.40;;;;;;;;;;5033650;28;20204;-96
2021/01/19 12:45:35;;;;;;;35.58;22.45;;;;;;;;;;5031746;28;20203;-96
2021/01/19 12:48:06;;;;;;;37.50;22.35;;;;;;;;;;5016970;28;20197;-96
2021/01/19 12:50:37;;;;;;;32.50;20.92;;;;;;;;;;5036305;28;20224;-96
2021/01/19 12:53:04;;;;;;;33.08;19.70;;;;;;;;;;5031913;28;20204;-96
2021/01/19 12:55:35;;;;;;;29.83;19.45;;;;;;;;;;5032903;28;20246;-96
2021/01/19 12:58:09;;;;;;;28.17;18.70;;;;;;;;;;5035227;28;20201;-96
2021/01/19 13:00:35;;;;;;;25.92;17.85;;;;;;;;;;5032508;28;20246;-96
2021/01/19 13:03:08;;;;;;;32.10;18.00;;;;;;;;;;5019061;28;20207;-96
2021/01/19 13:08:27;;;;;;;29.40;18.17;;;;;;;;;;5028066;28;20222;-96
2021/01/19 13:10:53;;;;;;;26.00;16.95;;;;;;;;;;5029183;28;20206;-96
2021/01/19 13:13:21;;;;;;;29.17;18.73;;;;;;;;;;5016862;28;20234;-96
2021/01/19 13:15:47;;;;;;;31.73;19.23;;;;;;;;;;5027405;28;20213;-96
2021/01/19 13:18:13;;;;;;;27.80;16.42;;;;;;;;;;5027172;28;20219;-96
2021/01/19 13:20:40;;;;;;;25.00;17.92;;;;;;;;;;5029262;28;20249;-96
2021/01/19 13:23:10;;;;;;;26.15;18.02;;;;;;;;;;5016842;28;20653;-96
2021/01/19 13:25:50;;;;;;;24.75;16.42;;;;;;;;;;5015966;28;20290;-96
2021/01/19 13:31:12;;;;;;;26.42;16.92;;;;;;;;;;5034437;28;20238;-96
2021/01/19 13:33:46;;;;;;;38.40;23.98;;;;;;;;;;5033366;28;20206;-96
2021/01/19 13:36:12;;;;;;;29.17;19.35;;;;;;;;;;5031609;28;20282;-96
2021/01/19 13:38:40;;;;;;;29.67;18.13;;;;;;;;;;5031586;28;20455;-96
2021/01/19 13:41:34;;;;;;;28.23;18.02;;;;;;;;;;5033735;28;20205;-96
2021/01/19 13:44:01;;;;;;;27.42;17.95;;;;;;;;;;5028877;28;20273;-96
2021/01/19 13:46:41;;;;;;;30.75;20.00;;;;;;;;;;5030758;28;20225;-96
2021/01/19 13:49:08;;;;;;;30.15;17.80;;;;;;;;;;5032264;28;20228;-96
2021/01/19 13:51:38;;;;;;;30.35;16.10;;;;;;;;;;5042819;28;20209;-96
2021/01/19 13:54:07;;;;;;;25.15;16.13;;;;;;;;;;5037173;28;20217;-96
2021/01/19 14:02:27;;;;;;;24.50;16.15;;;;;;;;;;5038003;28;20201;-96
2021/01/19 14:05:19;;;;;;;26.55;15.57;;;;;;;;;;5016689;28;20216;-96
2021/01/19 14:08:14;;;;;;;25.00;17.02;;;;;;;;;;5036364;28;20230;-96
2021/01/19 14:10:41;;;;;;;27.92;17.75;;;;;;;;;;5017440;28;20201;-96
2021/01/19 14:13:09;;;;;;;29.27;18.55;;;;;;;;;;5029742;28;20210;-96
2021/01/19 14:15:36;;;;;;;33.60;20.25;;;;;;;;;;5011451;28;20300;-96
2021/01/19 14:18:03;;;;;;;27.80;17.63;;;;;;;;;;5038217;28;20228;-96
2021/01/19 14:20:31;;;;;;;27.35;17.00;;;;;;;;;;5033239;28;20203;-96
2021/01/19 14:23:01;;;;;;;24.52;16.95;;;;;;;;;;5031762;28;20206;-96
2021/01/19 14:25:28;;;;;;;26.40;16.40;;;;;;;;;;5031634;28;20217;-96
2021/01/19 14:27:54;;;;;;;27.27;16.15;;;;;;;;;;5029249;28;20186;-96
2021/01/19 14:30:21;;;;;;;33.80;17.30;;;;;;;;;;5037373;28;20302;-96
2021/01/19 14:32:49;;;;;;;26.02;16.80;;;;;;;;;;5029787;28;20198;-96
2021/01/19 14:35:15;;;;;;;27.13;17.15;;;;;;;;;;5036475;28;20207;-96
2021/01/19 14:37:41;;;;;;;27.58;17.65;;;;;;;;;;5029969;28;20241;-96
2021/01/19 14:40:08;;;;;;;27.80;16.25;;;;;;;;;;5023483;28;20214;-95
2021/01/19 14:42:34;;;;;;;26.63;15.85;;;;;;;;;;5021768;28;20263;-95
2021/01/19 14:45:00;;;;;;;29.02;17.10;;;;;;;;;;5022355;28;20235;-94
2021/01/19 14:47:26;;;;;;;30.52;17.45;;;;;;;;;;5022781;28;20232;-94
2021/01/19 14:49:53;;;;;;;26.83;17.00;;;;;;;;;;5022091;28;20198;-95
2021/01/19 14:52:19;;;;;;;24.98;15.43;;;;;;;;;;5022049;28;20217;-95
2021/01/19 14:54:49;;;;;;;21.63;14.20;;;;;;;;;;5021616;28;20214;-95
2021/01/19 14:57:15;;;;;;;27.83;15.82;;;;;;;;;;5022191;28;20206;-94